sensor_id;sensor_type;location;lat;lon;timestamp;P1;durP1;ratioP1;P2;durP2;ratioP2
75984;SDS011;65033;44.660;37.758;2024-02-21T00:00:33;12.90;;;5.45;;
75984;SDS011;65033;44.660;37.758;2024-02-21T00:01:37;12.30;;;5.65;;
75984;SDS011;65033;44.660;37.758;2024-02-21T00:02:41;11.65;;;6.47;;
75984;SDS011;65033;44.660;37.758;2024-02-21T00:03:48;11.25;;;5.72;;
75984;SDS011;65033;44.660;37.758;2024-02-21T00:04:52;13.02;;;6.38;;
75984;SDS011;65033;44.660;37.758;2024-02-21T00:05:56;13.73;;;6.55;;
75984;SDS011;65033;44.660;37.758;2024-02-21T00:06:59;12.73;;;6.18;;
75984;SDS011;65033;44.660;37.758;2024-02-21T00:08:03;9.38;;;5.38;;
75984;SDS011;65033;44.660;37.758;2024-02-21T00:09:08;12.02;;;7.03;;
75984;SDS011;65033;44.660;37.758;2024-02-21T00:10:12;11.27;;;6.20;;
75984;SDS011;65033;44.660;37.758;2024-02-21T00:11:17;15.77;;;6.50;;
75984;SDS011;65033;44.660;37.758;2024-02-21T00:12:21;10.98;;;6.20;;
75984;SDS011;65033;44.660;37.758;2024-02-21T00:13:25;11.55;;;6.35;;
75984;SDS011;65033;44.660;37.758;2024-02-21T00:14:32;10.02;;;5.60;;
75984;SDS011;65033;44.660;37.758;2024-02-21T00:15:36;11.35;;;6.05;;
75984;SDS011;65033;44.660;37.758;2024-02-21T00:16:41;11.15;;;5.45;;
75984;SDS011;65033;44.660;37.758;2024-02-21T00:17:44;15.38;;;6.30;;
75984;SDS011;65033;44.660;37.758;2024-02-21T00:18:48;11.88;;;5.15;;
75984;SDS011;65033;44.660;37.758;2024-02-21T00:19:57;11.10;;;5.28;;
75984;SDS011;65033;44.660;37.758;2024-02-21T00:21:01;13.77;;;6.35;;
75984;SDS011;65033;44.660;37.758;2024-02-21T00:22:06;10.40;;;5.15;;
75984;SDS011;65033;44.660;37.758;2024-02-21T00:23:10;8.90;;;5.22;;
75984;SDS011;65033;44.660;37.758;2024-02-21T00:24:13;10.77;;;5.90;;
75984;SDS011;65033;44.660;37.758;2024-02-21T00:25:19;12.80;;;6.40;;
75984;SDS011;65033;44.660;37.758;2024-02-21T00:26:24;12.98;;;5.80;;
75984;SDS011;65033;44.660;37.758;2024-02-21T00:27:28;12.20;;;6.00;;
75984;SDS011;65033;44.660;37.758;2024-02-21T00:28:34;13.60;;;5.72;;
75984;SDS011;65033;44.660;37.758;2024-02-21T00:29:38;12.13;;;5.78;;
75984;SDS011;65033;44.660;37.758;2024-02-21T00:30:43;13.80;;;5.32;;
75984;SDS011;65033;44.660;37.758;2024-02-21T00:31:49;13.45;;;7.30;;
75984;SDS011;65033;44.660;37.758;2024-02-21T00:32:56;13.02;;;7.03;;
75984;SDS011;65033;44.660;37.758;2024-02-21T00:34:00;11.88;;;5.90;;
75984;SDS011;65033;44.660;37.758;2024-02-21T00:35:04;13.55;;;6.55;;
75984;SDS011;65033;44.660;37.758;2024-02-21T00:36:11;12.38;;;6.25;;
75984;SDS011;65033;44.660;37.758;2024-02-21T00:37:15;11.02;;;5.97;;
75984;SDS011;65033;44.660;37.758;2024-02-21T00:38:18;16.63;;;6.60;;
75984;SDS011;65033;44.660;37.758;2024-02-21T00:39:22;12.73;;;5.72;;
75984;SDS011;65033;44.660;37.758;2024-02-21T00:40:27;13.73;;;6.72;;
75984;SDS011;65033;44.660;37.758;2024-02-21T00:41:35;13.55;;;6.82;;
75984;SDS011;65033;44.660;37.758;2024-02-21T00:42:39;12.30;;;6.03;;
75984;SDS011;65033;44.660;37.758;2024-02-21T00:43:43;12.85;;;5.75;;
75984;SDS011;65033;44.660;37.758;2024-02-21T00:44:49;12.50;;;6.03;;
75984;SDS011;65033;44.660;37.758;2024-02-21T00:45:53;13.07;;;5.93;;
75984;SDS011;65033;44.660;37.758;2024-02-21T00:46:57;12.05;;;5.40;;
75984;SDS011;65033;44.660;37.758;2024-02-21T00:48:04;12.07;;;5.80;;
75984;SDS011;65033;44.660;37.758;2024-02-21T00:49:13;14.27;;;6.35;;
75984;SDS011;65033;44.660;37.758;2024-02-21T00:50:20;11.85;;;6.75;;
75984;SDS011;65033;44.660;37.758;2024-02-21T00:51:23;14.45;;;7.03;;
75984;SDS011;65033;44.660;37.758;2024-02-21T00:52:27;13.73;;;7.45;;
75984;SDS011;65033;44.660;37.758;2024-02-21T00:53:31;14.70;;;7.63;;
75984;SDS011;65033;44.660;37.758;2024-02-21T00:54:37;15.68;;;6.82;;
75984;SDS011;65033;44.660;37.758;2024-02-21T00:55:42;14.15;;;6.88;;
75984;SDS011;65033;44.660;37.758;2024-02-21T00:56:48;11.40;;;6.85;;
75984;SDS011;65033;44.660;37.758;2024-02-21T00:57:51;13.82;;;6.82;;
75984;SDS011;65033;44.660;37.758;2024-02-21T00:59:01;11.50;;;6.90;;
75984;SDS011;65033;44.660;37.758;2024-02-21T01:00:07;13.35;;;6.53;;
75984;SDS011;65033;44.660;37.758;2024-02-21T01:01:22;16.75;;;7.20;;
75984;SDS011;65033;44.660;37.758;2024-02-21T01:02:26;14.07;;;6.60;;
75984;SDS011;65033;44.660;37.758;2024-02-21T01:03:30;15.18;;;6.40;;
75984;SDS011;65033;44.660;37.758;2024-02-21T01:04:35;16.17;;;6.65;;
75984;SDS011;65033;44.660;37.758;2024-02-21T01:05:39;15.32;;;7.43;;
75984;SDS011;65033;44.660;37.758;2024-02-21T01:06:43;12.93;;;7.43;;
75984;SDS011;65033;44.660;37.758;2024-02-21T01:07:48;17.48;;;8.02;;
75984;SDS011;65033;44.660;37.758;2024-02-21T01:08:54;14.40;;;6.82;;
75984;SDS011;65033;44.660;37.758;2024-02-21T01:09:58;15.15;;;7.10;;
75984;SDS011;65033;44.660;37.758;2024-02-21T01:11:02;13.77;;;6.65;;
75984;SDS011;65033;44.660;37.758;2024-02-21T01:12:07;13.52;;;6.63;;
75984;SDS011;65033;44.660;37.758;2024-02-21T01:13:11;13.05;;;6.35;;
75984;SDS011;65033;44.660;37.758;2024-02-21T01:14:15;15.35;;;6.95;;
75984;SDS011;65033;44.660;37.758;2024-02-21T01:15:19;11.07;;;6.68;;
75984;SDS011;65033;44.660;37.758;2024-02-21T01:16:24;14.07;;;6.47;;
75984;SDS011;65033;44.660;37.758;2024-02-21T01:17:28;14.38;;;7.13;;
75984;SDS011;65033;44.660;37.758;2024-02-21T01:18:32;14.30;;;7.28;;
75984;SDS011;65033;44.660;37.758;2024-02-21T01:19:36;14.23;;;7.35;;
75984;SDS011;65033;44.660;37.758;2024-02-21T01:20:41;12.02;;;6.78;;
75984;SDS011;65033;44.660;37.758;2024-02-21T01:21:45;12.82;;;6.55;;
75984;SDS011;65033;44.660;37.758;2024-02-21T01:22:48;14.48;;;7.15;;
75984;SDS011;65033;44.660;37.758;2024-02-21T01:23:52;16.98;;;6.90;;
75984;SDS011;65033;44.660;37.758;2024-02-21T01:24:56;15.55;;;8.13;;
75984;SDS011;65033;44.660;37.758;2024-02-21T01:26:00;13.05;;;6.90;;
75984;SDS011;65033;44.660;37.758;2024-02-21T01:27:04;13.48;;;6.93;;
75984;SDS011;65033;44.660;37.758;2024-02-21T01:28:09;10.88;;;5.68;;
75984;SDS011;65033;44.660;37.758;2024-02-21T01:29:12;13.18;;;6.60;;
75984;SDS011;65033;44.660;37.758;2024-02-21T01:30:16;15.35;;;6.47;;
75984;SDS011;65033;44.660;37.758;2024-02-21T01:31:20;13.15;;;6.90;;
75984;SDS011;65033;44.660;37.758;2024-02-21T01:32:24;14.23;;;6.57;;
75984;SDS011;65033;44.660;37.758;2024-02-21T01:33:28;13.18;;;6.35;;
75984;SDS011;65033;44.660;37.758;2024-02-21T01:34:37;13.13;;;5.65;;
75984;SDS011;65033;44.660;37.758;2024-02-21T01:35:41;17.23;;;6.22;;
75984;SDS011;65033;44.660;37.758;2024-02-21T01:36:45;15.18;;;6.32;;
75984;SDS011;65033;44.660;37.758;2024-02-21T01:37:49;12.68;;;6.68;;
75984;SDS011;65033;44.660;37.758;2024-02-21T01:38:54;16.05;;;6.75;;
75984;SDS011;65033;44.660;37.758;2024-02-21T01:39:58;14.57;;;7.97;;
75984;SDS011;65033;44.660;37.758;2024-02-21T01:41:02;13.25;;;6.65;;
75984;SDS011;65033;44.660;37.758;2024-02-21T01:42:06;11.52;;;6.00;;
75984;SDS011;65033;44.660;37.758;2024-02-21T01:43:20;12.63;;;6.72;;
75984;SDS011;65033;44.660;37.758;2024-02-21T01:44:24;15.32;;;6.47;;
75984;SDS011;65033;44.660;37.758;2024-02-21T01:45:28;15.93;;;7.93;;
75984;SDS011;65033;44.660;37.758;2024-02-21T01:46:32;13.57;;;7.00;;
75984;SDS011;65033;44.660;37.758;2024-02-21T01:47:36;13.88;;;6.55;;
75984;SDS011;65033;44.660;37.758;2024-02-21T01:48:41;17.42;;;6.72;;
75984;SDS011;65033;44.660;37.758;2024-02-21T01:49:45;14.55;;;7.40;;
75984;SDS011;65033;44.660;37.758;2024-02-21T01:50:49;12.38;;;6.70;;
75984;SDS011;65033;44.660;37.758;2024-02-21T01:51:53;15.15;;;6.75;;
75984;SDS011;65033;44.660;37.758;2024-02-21T01:52:58;17.52;;;7.38;;
75984;SDS011;65033;44.660;37.758;2024-02-21T01:54:03;17.17;;;7.47;;
75984;SDS011;65033;44.660;37.758;2024-02-21T01:55:07;15.32;;;7.00;;
75984;SDS011;65033;44.660;37.758;2024-02-21T01:56:12;18.48;;;6.82;;
75984;SDS011;65033;44.660;37.758;2024-02-21T01:57:16;11.02;;;5.95;;
75984;SDS011;65033;44.660;37.758;2024-02-21T01:58:21;14.98;;;6.18;;
75984;SDS011;65033;44.660;37.758;2024-02-21T01:59:26;11.60;;;6.72;;
75984;SDS011;65033;44.660;37.758;2024-02-21T02:00:31;13.07;;;7.10;;
75984;SDS011;65033;44.660;37.758;2024-02-21T02:01:37;14.23;;;7.13;;
75984;SDS011;65033;44.660;37.758;2024-02-21T02:02:41;16.10;;;7.20;;
75984;SDS011;65033;44.660;37.758;2024-02-21T02:03:45;14.65;;;7.63;;
75984;SDS011;65033;44.660;37.758;2024-02-21T02:04:49;14.90;;;8.02;;
75984;SDS011;65033;44.660;37.758;2024-02-21T02:05:55;12.05;;;6.28;;
75984;SDS011;65033;44.660;37.758;2024-02-21T02:06:59;15.38;;;6.40;;
75984;SDS011;65033;44.660;37.758;2024-02-21T02:08:06;15.45;;;7.10;;
75984;SDS011;65033;44.660;37.758;2024-02-21T02:09:09;13.40;;;7.03;;
75984;SDS011;65033;44.660;37.758;2024-02-21T02:10:13;17.27;;;8.52;;
75984;SDS011;65033;44.660;37.758;2024-02-21T02:11:17;15.02;;;6.78;;
75984;SDS011;65033;44.660;37.758;2024-02-21T02:12:21;20.00;;;7.22;;
75984;SDS011;65033;44.660;37.758;2024-02-21T02:13:26;13.68;;;6.88;;
75984;SDS011;65033;44.660;37.758;2024-02-21T02:14:30;19.48;;;7.18;;
75984;SDS011;65033;44.660;37.758;2024-02-21T02:15:40;15.77;;;6.93;;
75984;SDS011;65033;44.660;37.758;2024-02-21T02:16:46;21.17;;;7.80;;
75984;SDS011;65033;44.660;37.758;2024-02-21T02:17:53;16.92;;;8.13;;
75984;SDS011;65033;44.660;37.758;2024-02-21T02:18:57;14.30;;;7.45;;
75984;SDS011;65033;44.660;37.758;2024-02-21T02:20:01;14.65;;;7.25;;
75984;SDS011;65033;44.660;37.758;2024-02-21T02:21:05;15.40;;;7.53;;
75984;SDS011;65033;44.660;37.758;2024-02-21T02:22:19;14.13;;;6.85;;
75984;SDS011;65033;44.660;37.758;2024-02-21T02:23:27;17.27;;;7.25;;
75984;SDS011;65033;44.660;37.758;2024-02-21T02:24:32;15.63;;;7.28;;
75984;SDS011;65033;44.660;37.758;2024-02-21T02:25:36;14.75;;;7.03;;
75984;SDS011;65033;44.660;37.758;2024-02-21T02:26:40;14.77;;;7.20;;
75984;SDS011;65033;44.660;37.758;2024-02-21T02:27:44;16.67;;;7.55;;
75984;SDS011;65033;44.660;37.758;2024-02-21T02:28:48;14.10;;;7.78;;
75984;SDS011;65033;44.660;37.758;2024-02-21T02:29:53;15.98;;;7.78;;
75984;SDS011;65033;44.660;37.758;2024-02-21T02:30:56;13.05;;;6.72;;
75984;SDS011;65033;44.660;37.758;2024-02-21T02:32:00;16.20;;;6.55;;
75984;SDS011;65033;44.660;37.758;2024-02-21T02:33:04;17.70;;;8.05;;
75984;SDS011;65033;44.660;37.758;2024-02-21T02:34:09;13.90;;;7.07;;
75984;SDS011;65033;44.660;37.758;2024-02-21T02:35:12;13.20;;;6.40;;
75984;SDS011;65033;44.660;37.758;2024-02-21T02:36:17;15.57;;;7.05;;
75984;SDS011;65033;44.660;37.758;2024-02-21T02:37:21;20.75;;;7.93;;
75984;SDS011;65033;44.660;37.758;2024-02-21T02:38:24;13.48;;;6.75;;
75984;SDS011;65033;44.660;37.758;2024-02-21T02:39:30;16.73;;;7.63;;
75984;SDS011;65033;44.660;37.758;2024-02-21T02:40:34;13.10;;;6.65;;
75984;SDS011;65033;44.660;37.758;2024-02-21T02:41:38;18.00;;;8.52;;
75984;SDS011;65033;44.660;37.758;2024-02-21T02:42:41;14.43;;;7.72;;
75984;SDS011;65033;44.660;37.758;2024-02-21T02:43:45;14.38;;;7.10;;
75984;SDS011;65033;44.660;37.758;2024-02-21T02:44:49;13.30;;;6.70;;
75984;SDS011;65033;44.660;37.758;2024-02-21T02:45:53;17.23;;;7.72;;
75984;SDS011;65033;44.660;37.758;2024-02-21T02:46:56;17.35;;;6.50;;
75984;SDS011;65033;44.660;37.758;2024-02-21T02:48:00;14.40;;;8.07;;
75984;SDS011;65033;44.660;37.758;2024-02-21T02:49:04;14.57;;;7.45;;
75984;SDS011;65033;44.660;37.758;2024-02-21T02:50:08;12.85;;;6.30;;
75984;SDS011;65033;44.660;37.758;2024-02-21T02:51:12;13.00;;;6.80;;
75984;SDS011;65033;44.660;37.758;2024-02-21T02:52:16;17.02;;;7.57;;
75984;SDS011;65033;44.660;37.758;2024-02-21T02:53:20;16.23;;;7.57;;
75984;SDS011;65033;44.660;37.758;2024-02-21T02:54:26;16.77;;;7.70;;
75984;SDS011;65033;44.660;37.758;2024-02-21T02:55:30;15.35;;;7.25;;
75984;SDS011;65033;44.660;37.758;2024-02-21T02:56:34;18.65;;;7.75;;
75984;SDS011;65033;44.660;37.758;2024-02-21T02:57:38;17.27;;;7.75;;
75984;SDS011;65033;44.660;37.758;2024-02-21T02:58:44;16.58;;;7.07;;
75984;SDS011;65033;44.660;37.758;2024-02-21T02:59:49;14.85;;;7.15;;
75984;SDS011;65033;44.660;37.758;2024-02-21T03:00:53;15.93;;;7.75;;
75984;SDS011;65033;44.660;37.758;2024-02-21T03:01:58;14.90;;;7.05;;
75984;SDS011;65033;44.660;37.758;2024-02-21T03:03:02;15.30;;;7.53;;
75984;SDS011;65033;44.660;37.758;2024-02-21T03:04:09;15.98;;;7.00;;
75984;SDS011;65033;44.660;37.758;2024-02-21T03:05:13;16.77;;;7.60;;
75984;SDS011;65033;44.660;37.758;2024-02-21T03:06:17;14.48;;;7.07;;
75984;SDS011;65033;44.660;37.758;2024-02-21T03:07:21;15.63;;;8.57;;
75984;SDS011;65033;44.660;37.758;2024-02-21T03:08:25;19.15;;;8.25;;
75984;SDS011;65033;44.660;37.758;2024-02-21T03:09:30;17.58;;;8.20;;
75984;SDS011;65033;44.660;37.758;2024-02-21T03:10:34;15.27;;;7.65;;
75984;SDS011;65033;44.660;37.758;2024-02-21T03:11:38;18.90;;;7.35;;
75984;SDS011;65033;44.660;37.758;2024-02-21T03:12:43;19.95;;;8.73;;
75984;SDS011;65033;44.660;37.758;2024-02-21T03:13:47;17.10;;;7.78;;
75984;SDS011;65033;44.660;37.758;2024-02-21T03:14:51;17.90;;;7.63;;
75984;SDS011;65033;44.660;37.758;2024-02-21T03:15:55;17.55;;;7.00;;
75984;SDS011;65033;44.660;37.758;2024-02-21T03:16:59;17.88;;;7.63;;
75984;SDS011;65033;44.660;37.758;2024-02-21T03:18:03;16.55;;;6.97;;
75984;SDS011;65033;44.660;37.758;2024-02-21T03:19:07;18.90;;;8.20;;
75984;SDS011;65033;44.660;37.758;2024-02-21T03:20:11;15.23;;;7.43;;
75984;SDS011;65033;44.660;37.758;2024-02-21T03:21:15;16.27;;;7.10;;
75984;SDS011;65033;44.660;37.758;2024-02-21T03:22:19;15.40;;;7.63;;
75984;SDS011;65033;44.660;37.758;2024-02-21T03:23:23;18.27;;;8.52;;
75984;SDS011;65033;44.660;37.758;2024-02-21T03:24:27;15.13;;;7.80;;
75984;SDS011;65033;44.660;37.758;2024-02-21T03:25:33;18.65;;;8.02;;
75984;SDS011;65033;44.660;37.758;2024-02-21T03:26:37;17.10;;;8.70;;
75984;SDS011;65033;44.660;37.758;2024-02-21T03:27:41;16.83;;;7.20;;
75984;SDS011;65033;44.660;37.758;2024-02-21T03:28:44;16.48;;;7.25;;
75984;SDS011;65033;44.660;37.758;2024-02-21T03:29:49;19.58;;;8.63;;
75984;SDS011;65033;44.660;37.758;2024-02-21T03:30:53;19.50;;;8.95;;
75984;SDS011;65033;44.660;37.758;2024-02-21T03:31:56;16.27;;;8.57;;
75984;SDS011;65033;44.660;37.758;2024-02-21T03:33:00;18.38;;;8.98;;
75984;SDS011;65033;44.660;37.758;2024-02-21T03:34:04;15.93;;;7.05;;
75984;SDS011;65033;44.660;37.758;2024-02-21T03:35:08;19.45;;;7.80;;
75984;SDS011;65033;44.660;37.758;2024-02-21T03:36:15;16.35;;;7.65;;
75984;SDS011;65033;44.660;37.758;2024-02-21T03:37:19;18.80;;;10.02;;
75984;SDS011;65033;44.660;37.758;2024-02-21T03:38:22;15.75;;;7.53;;
75984;SDS011;65033;44.660;37.758;2024-02-21T03:39:27;18.27;;;7.05;;
75984;SDS011;65033;44.660;37.758;2024-02-21T03:40:35;20.25;;;9.63;;
75984;SDS011;65033;44.660;37.758;2024-02-21T03:41:39;16.65;;;7.63;;
75984;SDS011;65033;44.660;37.758;2024-02-21T03:42:43;20.50;;;8.68;;
75984;SDS011;65033;44.660;37.758;2024-02-21T03:43:47;18.55;;;7.78;;
75984;SDS011;65033;44.660;37.758;2024-02-21T03:44:50;16.58;;;8.10;;
75984;SDS011;65033;44.660;37.758;2024-02-21T03:45:54;17.88;;;7.30;;
75984;SDS011;65033;44.660;37.758;2024-02-21T03:46:59;15.38;;;7.43;;
75984;SDS011;65033;44.660;37.758;2024-02-21T03:48:05;15.50;;;7.63;;
75984;SDS011;65033;44.660;37.758;2024-02-21T03:49:09;16.85;;;8.35;;
75984;SDS011;65033;44.660;37.758;2024-02-21T03:50:13;20.42;;;9.18;;
75984;SDS011;65033;44.660;37.758;2024-02-21T03:51:17;15.98;;;8.07;;
75984;SDS011;65033;44.660;37.758;2024-02-21T03:52:20;19.02;;;7.82;;
75984;SDS011;65033;44.660;37.758;2024-02-21T03:53:24;19.33;;;7.97;;
75984;SDS011;65033;44.660;37.758;2024-02-21T03:54:28;18.10;;;8.70;;
75984;SDS011;65033;44.660;37.758;2024-02-21T03:55:32;18.58;;;9.60;;
75984;SDS011;65033;44.660;37.758;2024-02-21T03:56:38;19.67;;;9.20;;
75984;SDS011;65033;44.660;37.758;2024-02-21T03:57:45;17.92;;;9.20;;
75984;SDS011;65033;44.660;37.758;2024-02-21T03:58:49;21.52;;;9.27;;
75984;SDS011;65033;44.660;37.758;2024-02-21T03:59:53;20.83;;;9.98;;
75984;SDS011;65033;44.660;37.758;2024-02-21T04:00:59;20.30;;;8.48;;
75984;SDS011;65033;44.660;37.758;2024-02-21T04:02:06;17.77;;;8.07;;
75984;SDS011;65033;44.660;37.758;2024-02-21T04:03:13;18.08;;;8.60;;
75984;SDS011;65033;44.660;37.758;2024-02-21T04:04:17;18.65;;;9.75;;
75984;SDS011;65033;44.660;37.758;2024-02-21T04:05:20;23.92;;;10.43;;
75984;SDS011;65033;44.660;37.758;2024-02-21T04:06:24;18.83;;;8.50;;
75984;SDS011;65033;44.660;37.758;2024-02-21T04:07:28;17.63;;;8.57;;
75984;SDS011;65033;44.660;37.758;2024-02-21T04:08:32;19.15;;;8.88;;
75984;SDS011;65033;44.660;37.758;2024-02-21T04:09:37;24.10;;;8.50;;
75984;SDS011;65033;44.660;37.758;2024-02-21T04:10:41;19.02;;;8.70;;
75984;SDS011;65033;44.660;37.758;2024-02-21T04:11:46;19.98;;;7.93;;
75984;SDS011;65033;44.660;37.758;2024-02-21T04:12:51;14.45;;;7.47;;
75984;SDS011;65033;44.660;37.758;2024-02-21T04:13:55;14.80;;;8.18;;
75984;SDS011;65033;44.660;37.758;2024-02-21T04:14:58;19.73;;;7.93;;
75984;SDS011;65033;44.660;37.758;2024-02-21T04:16:02;16.33;;;7.65;;
75984;SDS011;65033;44.660;37.758;2024-02-21T04:17:09;18.10;;;8.02;;
75984;SDS011;65033;44.660;37.758;2024-02-21T04:18:13;15.73;;;6.97;;
75984;SDS011;65033;44.660;37.758;2024-02-21T04:19:17;14.20;;;7.53;;
75984;SDS011;65033;44.660;37.758;2024-02-21T04:20:21;16.02;;;6.80;;
75984;SDS011;65033;44.660;37.758;2024-02-21T04:21:25;19.58;;;8.13;;
75984;SDS011;65033;44.660;37.758;2024-02-21T04:22:29;20.30;;;8.35;;
75984;SDS011;65033;44.660;37.758;2024-02-21T04:23:33;18.38;;;8.80;;
75984;SDS011;65033;44.660;37.758;2024-02-21T04:24:37;18.48;;;8.45;;
75984;SDS011;65033;44.660;37.758;2024-02-21T04:25:41;20.08;;;8.32;;
75984;SDS011;65033;44.660;37.758;2024-02-21T04:26:44;17.10;;;7.28;;
75984;SDS011;65033;44.660;37.758;2024-02-21T04:27:50;18.80;;;7.45;;
75984;SDS011;65033;44.660;37.758;2024-02-21T04:28:54;18.85;;;8.07;;
75984;SDS011;65033;44.660;37.758;2024-02-21T04:29:58;12.80;;;6.22;;
75984;SDS011;65033;44.660;37.758;2024-02-21T04:31:07;15.63;;;7.88;;
75984;SDS011;65033;44.660;37.758;2024-02-21T04:32:11;15.65;;;7.05;;
75984;SDS011;65033;44.660;37.758;2024-02-21T04:33:15;14.38;;;7.13;;
75984;SDS011;65033;44.660;37.758;2024-02-21T04:34:19;18.58;;;7.47;;
75984;SDS011;65033;44.660;37.758;2024-02-21T04:35:23;17.05;;;8.30;;
75984;SDS011;65033;44.660;37.758;2024-02-21T04:36:27;18.95;;;8.00;;
75984;SDS011;65033;44.660;37.758;2024-02-21T04:37:31;15.35;;;7.20;;
75984;SDS011;65033;44.660;37.758;2024-02-21T04:38:35;18.42;;;7.47;;
75984;SDS011;65033;44.660;37.758;2024-02-21T04:39:38;23.15;;;12.10;;
75984;SDS011;65033;44.660;37.758;2024-02-21T04:40:43;16.90;;;6.93;;
75984;SDS011;65033;44.660;37.758;2024-02-21T04:41:51;18.58;;;8.57;;
75984;SDS011;65033;44.660;37.758;2024-02-21T04:42:57;22.30;;;9.07;;
75984;SDS011;65033;44.660;37.758;2024-02-21T04:44:04;15.23;;;6.65;;
75984;SDS011;65033;44.660;37.758;2024-02-21T04:45:08;19.95;;;7.07;;
75984;SDS011;65033;44.660;37.758;2024-02-21T04:46:13;16.90;;;7.28;;
75984;SDS011;65033;44.660;37.758;2024-02-21T04:47:18;19.05;;;8.48;;
75984;SDS011;65033;44.660;37.758;2024-02-21T04:48:26;13.27;;;5.97;;
75984;SDS011;65033;44.660;37.758;2024-02-21T04:49:30;17.90;;;6.90;;
75984;SDS011;65033;44.660;37.758;2024-02-21T04:50:34;16.83;;;7.22;;
75984;SDS011;65033;44.660;37.758;2024-02-21T04:51:39;22.75;;;10.27;;
75984;SDS011;65033;44.660;37.758;2024-02-21T04:52:46;18.92;;;8.90;;
75984;SDS011;65033;44.660;37.758;2024-02-21T04:53:50;17.83;;;9.65;;
75984;SDS011;65033;44.660;37.758;2024-02-21T04:54:54;18.38;;;8.20;;
75984;SDS011;65033;44.660;37.758;2024-02-21T04:55:58;14.15;;;6.70;;
75984;SDS011;65033;44.660;37.758;2024-02-21T04:57:05;16.58;;;8.02;;
75984;SDS011;65033;44.660;37.758;2024-02-21T04:58:09;21.95;;;9.07;;
75984;SDS011;65033;44.660;37.758;2024-02-21T04:59:13;14.27;;;6.53;;
75984;SDS011;65033;44.660;37.758;2024-02-21T05:00:17;14.98;;;7.57;;
75984;SDS011;65033;44.660;37.758;2024-02-21T05:01:22;15.55;;;8.15;;
75984;SDS011;65033;44.660;37.758;2024-02-21T05:02:26;19.38;;;9.07;;
75984;SDS011;65033;44.660;37.758;2024-02-21T05:03:30;15.43;;;7.32;;
75984;SDS011;65033;44.660;37.758;2024-02-21T05:04:34;18.13;;;7.40;;
75984;SDS011;65033;44.660;37.758;2024-02-21T05:05:41;14.35;;;7.32;;
75984;SDS011;65033;44.660;37.758;2024-02-21T05:06:45;15.75;;;7.93;;
75984;SDS011;65033;44.660;37.758;2024-02-21T05:07:49;14.70;;;7.40;;
75984;SDS011;65033;44.660;37.758;2024-02-21T05:08:54;19.10;;;7.65;;
75984;SDS011;65033;44.660;37.758;2024-02-21T05:09:58;12.35;;;6.30;;
75984;SDS011;65033;44.660;37.758;2024-02-21T05:11:05;16.48;;;6.93;;
75984;SDS011;65033;44.660;37.758;2024-02-21T05:12:12;16.65;;;7.75;;
75984;SDS011;65033;44.660;37.758;2024-02-21T05:13:16;16.13;;;6.93;;
75984;SDS011;65033;44.660;37.758;2024-02-21T05:14:20;13.65;;;6.13;;
75984;SDS011;65033;44.660;37.758;2024-02-21T05:15:24;19.33;;;6.85;;
75984;SDS011;65033;44.660;37.758;2024-02-21T05:16:28;14.02;;;6.30;;
75984;SDS011;65033;44.660;37.758;2024-02-21T05:17:40;17.05;;;7.07;;
75984;SDS011;65033;44.660;37.758;2024-02-21T05:18:45;14.00;;;6.30;;
75984;SDS011;65033;44.660;37.758;2024-02-21T05:19:49;13.80;;;6.95;;
75984;SDS011;65033;44.660;37.758;2024-02-21T05:20:53;17.38;;;7.70;;
75984;SDS011;65033;44.660;37.758;2024-02-21T05:21:58;18.40;;;7.65;;
75984;SDS011;65033;44.660;37.758;2024-02-21T05:23:02;15.55;;;7.03;;
75984;SDS011;65033;44.660;37.758;2024-02-21T05:24:06;14.05;;;6.57;;
75984;SDS011;65033;44.660;37.758;2024-02-21T05:25:10;13.23;;;6.85;;
75984;SDS011;65033;44.660;37.758;2024-02-21T05:26:19;17.02;;;6.82;;
75984;SDS011;65033;44.660;37.758;2024-02-21T05:27:26;24.20;;;9.13;;
75984;SDS011;65033;44.660;37.758;2024-02-21T05:28:30;18.35;;;6.65;;
75984;SDS011;65033;44.660;37.758;2024-02-21T05:30:06;18.95;;;8.68;;
75984;SDS011;65033;44.660;37.758;2024-02-21T05:31:11;11.73;;;6.18;;
75984;SDS011;65033;44.660;37.758;2024-02-21T05:32:17;14.07;;;6.60;;
75984;SDS011;65033;44.660;37.758;2024-02-21T05:33:21;14.15;;;6.93;;
75984;SDS011;65033;44.660;37.758;2024-02-21T05:34:25;20.80;;;6.85;;
75984;SDS011;65033;44.660;37.758;2024-02-21T05:35:29;15.98;;;6.60;;
75984;SDS011;65033;44.660;37.758;2024-02-21T05:36:35;15.70;;;6.63;;
75984;SDS011;65033;44.660;37.758;2024-02-21T05:37:39;14.90;;;6.68;;
75984;SDS011;65033;44.660;37.758;2024-02-21T05:38:43;16.05;;;5.88;;
75984;SDS011;65033;44.660;37.758;2024-02-21T05:39:46;13.10;;;6.88;;
75984;SDS011;65033;44.660;37.758;2024-02-21T05:40:50;14.10;;;6.40;;
75984;SDS011;65033;44.660;37.758;2024-02-21T05:41:54;14.80;;;6.65;;
75984;SDS011;65033;44.660;37.758;2024-02-21T05:42:59;12.02;;;5.40;;
75984;SDS011;65033;44.660;37.758;2024-02-21T05:44:03;13.60;;;5.68;;
75984;SDS011;65033;44.660;37.758;2024-02-21T05:45:07;13.02;;;6.65;;
75984;SDS011;65033;44.660;37.758;2024-02-21T05:46:14;10.45;;;5.63;;
75984;SDS011;65033;44.660;37.758;2024-02-21T05:47:21;9.68;;;5.28;;
75984;SDS011;65033;44.660;37.758;2024-02-21T05:48:25;9.70;;;5.80;;
75984;SDS011;65033;44.660;37.758;2024-02-21T05:49:30;12.88;;;5.82;;
75984;SDS011;65033;44.660;37.758;2024-02-21T05:50:34;11.13;;;5.57;;
75984;SDS011;65033;44.660;37.758;2024-02-21T05:51:38;12.15;;;5.80;;
75984;SDS011;65033;44.660;37.758;2024-02-21T05:52:46;12.20;;;5.47;;
75984;SDS011;65033;44.660;37.758;2024-02-21T05:53:50;10.93;;;5.70;;
75984;SDS011;65033;44.660;37.758;2024-02-21T05:54:53;26.42;;;7.45;;
75984;SDS011;65033;44.660;37.758;2024-02-21T05:55:57;17.25;;;6.57;;
75984;SDS011;65033;44.660;37.758;2024-02-21T05:57:12;15.10;;;6.25;;
75984;SDS011;65033;44.660;37.758;2024-02-21T05:58:17;14.63;;;6.00;;
75984;SDS011;65033;44.660;37.758;2024-02-21T05:59:21;15.50;;;5.68;;
75984;SDS011;65033;44.660;37.758;2024-02-21T06:00:26;15.40;;;6.95;;
75984;SDS011;65033;44.660;37.758;2024-02-21T06:01:33;14.32;;;6.20;;
75984;SDS011;65033;44.660;37.758;2024-02-21T06:02:38;12.73;;;6.35;;
75984;SDS011;65033;44.660;37.758;2024-02-21T06:03:42;11.02;;;5.47;;
75984;SDS011;65033;44.660;37.758;2024-02-21T06:04:46;13.32;;;5.93;;
75984;SDS011;65033;44.660;37.758;2024-02-21T06:05:50;11.98;;;5.80;;
75984;SDS011;65033;44.660;37.758;2024-02-21T06:06:54;16.27;;;7.05;;
75984;SDS011;65033;44.660;37.758;2024-02-21T06:07:57;12.57;;;5.65;;
75984;SDS011;65033;44.660;37.758;2024-02-21T06:09:01;13.65;;;5.50;;
75984;SDS011;65033;44.660;37.758;2024-02-21T06:10:06;12.57;;;5.97;;
75984;SDS011;65033;44.660;37.758;2024-02-21T06:11:11;12.35;;;5.43;;
75984;SDS011;65033;44.660;37.758;2024-02-21T06:12:15;10.40;;;4.78;;
75984;SDS011;65033;44.660;37.758;2024-02-21T06:13:20;12.23;;;6.07;;
75984;SDS011;65033;44.660;37.758;2024-02-21T06:14:24;11.63;;;5.35;;
75984;SDS011;65033;44.660;37.758;2024-02-21T06:15:28;10.00;;;5.15;;
75984;SDS011;65033;44.660;37.758;2024-02-21T06:16:32;12.30;;;6.03;;
75984;SDS011;65033;44.660;37.758;2024-02-21T06:17:36;14.73;;;6.72;;
75984;SDS011;65033;44.660;37.758;2024-02-21T06:18:40;11.77;;;5.28;;